createdAt,value
2019-06-07T00:01:21.127Z,10.68
2019-06-07T00:03:52.338Z,10.68
2019-06-07T00:06:25.609Z,10.55
2019-06-07T00:08:53.211Z,10.25
2019-06-07T00:11:23.795Z,10.23
2019-06-07T00:13:55.055Z,10.05
2019-06-07T00:16:24.677Z,9.65
2019-06-07T00:18:54.328Z,10.13
2019-06-07T00:22:06.603Z,9.73
2019-06-07T00:24:01.039Z,10.43
2019-06-07T00:26:55.071Z,9.98
2019-06-07T00:29:13.806Z,10.80
2019-06-07T00:31:44.171Z,10.48
2019-06-07T00:34:17.158Z,10.68
2019-06-07T00:36:50.147Z,9.83
2019-06-07T00:39:25.361Z,10.53
2019-06-07T00:41:55.504Z,10.38
2019-06-07T00:44:28.501Z,10.82
2019-06-07T00:47:00.555Z,10.43
2019-06-07T00:49:40.581Z,10.32
2019-06-07T00:52:06.838Z,11.15
2019-06-07T00:54:39.208Z,10.40
2019-06-07T00:57:12.488Z,10.65
2019-06-07T00:59:44.874Z,10.30
2019-06-07T01:02:19.229Z,10.08
2019-06-07T01:04:51.154Z,10.72
2019-06-07T01:07:24.569Z,10.53
2019-06-07T01:09:56.824Z,10.40
2019-06-07T01:12:29.500Z,9.88
2019-06-07T01:15:02.486Z,10.45
2019-06-07T01:17:43.827Z,10.15
2019-06-07T01:20:14.194Z,9.95
2019-06-07T01:22:45.920Z,9.60
2019-06-07T01:25:21.989Z,10.13
2019-06-07T01:27:51.848Z,9.65
2019-06-07T01:30:26.695Z,9.93
2019-06-07T01:33:01.073Z,10.13
2019-06-07T01:35:34.060Z,9.83
2019-06-07T01:38:07.049Z,10.10
2019-06-07T01:40:38.496Z,10.35
2019-06-07T01:43:10.799Z,9.55
2019-06-07T01:45:40.407Z,9.63
2019-06-07T01:48:10.053Z,10.08
2019-06-07T01:50:39.530Z,9.78
2019-06-07T01:53:09.139Z,9.80
2019-06-07T01:55:38.675Z,9.98
2019-06-07T01:58:08.282Z,10.08
2019-06-07T02:00:37.874Z,9.95
2019-06-07T02:03:07.560Z,10.70
2019-06-07T02:05:37.197Z,10.90
2019-06-07T02:08:06.855Z,9.68
2019-06-07T02:10:36.374Z,10.28
2019-06-07T02:13:05.987Z,10.08
2019-06-07T02:15:36.789Z,10.18
2019-06-07T02:18:06.679Z,10.13
2019-06-07T02:20:36.287Z,9.85
2019-06-07T02:23:05.899Z,9.68
2019-06-07T02:25:45.528Z,9.95
2019-06-07T02:28:27.531Z,10.32
2019-06-07T02:30:47.120Z,9.83
2019-06-07T02:33:09.233Z,10.05
2019-06-07T02:35:40.494Z,10.00
2019-06-07T02:38:09.923Z,10.60
2019-06-07T02:40:39.533Z,10.43
2019-06-07T02:43:09.145Z,9.98
2019-06-07T02:45:43.516Z,10.93
2019-06-07T02:48:10.878Z,10.78
2019-06-07T02:50:40.456Z,10.13
2019-06-07T02:53:10.074Z,10.30
2019-06-07T02:56:32.883Z,10.50
2019-06-07T02:58:10.914Z,10.03
2019-06-07T03:01:05.565Z,11.05
2019-06-07T03:03:17.935Z,11.10
2019-06-07T03:05:47.720Z,11.40
2019-06-07T03:08:17.838Z,10.95
2019-06-07T03:10:49.827Z,10.35
2019-06-07T03:13:20.763Z,11.53
2019-06-07T03:15:53.474Z,11.33
2019-06-07T03:18:41.941Z,10.28
2019-06-07T03:21:13.112Z,10.80
2019-06-07T03:23:44.239Z,9.98
2019-06-07T03:26:15.623Z,10.25
2019-06-07T03:28:45.311Z,10.78
2019-06-07T03:31:14.779Z,11.38
2019-06-07T03:33:45.627Z,11.12
2019-06-07T03:36:23.848Z,11.33
2019-06-07T03:38:46.403Z,10.70
2019-06-07T03:41:16.030Z,10.43
2019-06-07T03:43:45.659Z,11.10
2019-06-07T03:46:15.205Z,10.35
2019-06-07T03:48:45.711Z,10.63
2019-06-07T03:51:24.806Z,10.68
2019-06-07T03:53:46.455Z,10.53
2019-06-07T03:56:16.346Z,10.13
2019-06-07T03:58:50.165Z,10.85
2019-06-07T04:01:17.126Z,10.55
2019-06-07T04:03:51.817Z,9.75
2019-06-07T04:06:17.743Z,10.60
2019-06-07T04:08:47.355Z,10.43
2019-06-07T04:11:16.800Z,10.23
2019-06-07T04:13:46.347Z,10.90
2019-06-07T04:16:15.863Z,10.63
2019-06-07T04:18:45.407Z,10.28
2019-06-07T04:21:15.010Z,9.70
2019-06-07T04:23:45.777Z,10.15
2019-06-07T04:26:15.368Z,10.28
2019-06-07T04:31:16.237Z,10.53
2019-06-07T04:33:45.788Z,11.25
2019-06-07T04:36:15.619Z,11.18
2019-06-07T04:38:46.603Z,12.23
2019-06-07T04:41:18.388Z,10.60
2019-06-07T04:43:48.767Z,10.53
2019-06-07T04:46:20.986Z,10.70
2019-06-07T04:48:51.522Z,10.25
2019-06-07T04:51:23.947Z,10.50
2019-06-07T04:53:53.582Z,10.45
2019-06-07T04:56:23.103Z,10.82
2019-06-07T04:58:53.547Z,11.48
2019-06-07T05:01:27.842Z,11.33
2019-06-07T05:03:54.304Z,11.53
2019-06-07T05:06:24.820Z,11.93
2019-06-07T05:08:54.430Z,12.00
2019-06-07T05:11:23.970Z,10.80
2019-06-07T05:13:53.359Z,10.93
2019-06-07T05:16:22.900Z,10.25
2019-06-07T05:18:52.342Z,11.30
2019-06-07T05:21:21.987Z,11.33
2019-06-07T05:24:10.330Z,10.75
2019-06-07T05:26:22.624Z,10.68
2019-06-07T05:28:52.204Z,10.20
2019-06-07T05:31:21.674Z,10.53
2019-06-07T05:33:51.160Z,9.43
2019-06-07T05:36:20.838Z,9.35
2019-06-07T05:38:50.467Z,9.38
2019-06-07T05:41:19.979Z,9.25
2019-06-07T05:44:09.176Z,9.45
2019-06-07T05:46:20.883Z,9.95
2019-06-07T05:48:50.372Z,9.75
2019-06-07T05:51:19.884Z,10.03
2019-06-07T05:53:49.405Z,10.53
2019-06-07T05:56:19.122Z,10.00
2019-06-07T05:58:48.671Z,11.05
2019-06-07T06:03:49.538Z,11.18
2019-06-07T06:06:19.543Z,11.40
2019-06-07T06:08:49.524Z,10.72
2019-06-07T06:11:19.162Z,11.00
2019-06-07T06:14:05.974Z,10.88
2019-06-07T06:16:20.388Z,11.00
2019-06-07T06:18:49.834Z,10.28
2019-06-07T06:21:20.416Z,11.20
2019-06-07T06:23:51.965Z,10.82
2019-06-07T06:26:21.279Z,10.55
2019-06-07T06:28:50.839Z,10.28
2019-06-07T06:31:20.324Z,10.98
2019-06-07T06:33:50.196Z,11.93
2019-06-07T06:36:20.407Z,11.75
2019-06-07T06:38:51.596Z,11.93
2019-06-07T06:41:21.300Z,11.90
2019-06-07T06:43:52.598Z,13.05
2019-06-07T06:46:38.305Z,13.60
2019-06-07T06:48:55.093Z,13.60
2019-06-07T06:51:24.391Z,14.73
2019-06-07T06:53:53.903Z,15.80
2019-06-07T06:56:24.415Z,16.75
2019-06-07T06:59:34.586Z,16.80
2019-06-07T07:01:25.117Z,16.82
2019-06-07T07:04:11.458Z,16.23
2019-06-07T07:06:26.986Z,17.27
2019-06-07T07:08:57.636Z,17.37
2019-06-07T07:11:27.106Z,19.25
2019-06-07T07:13:57.281Z,19.23
2019-06-07T07:16:26.915Z,19.70
2019-06-07T07:18:56.425Z,20.45
2019-06-07T07:21:26.058Z,20.80
2019-06-07T07:24:19.023Z,20.35
2019-06-07T07:26:26.851Z,20.12
2019-06-07T07:28:57.682Z,20.52
2019-06-07T07:31:27.577Z,20.00
2019-06-07T07:34:29.037Z,20.35
2019-06-07T07:36:38.964Z,19.17
2019-06-07T07:39:04.742Z,18.62
2019-06-07T07:41:32.095Z,19.40
2019-06-07T07:44:07.042Z,17.48
2019-06-07T07:46:32.864Z,18.20
2019-06-07T07:49:02.339Z,18.52
2019-06-07T07:51:31.979Z,18.17
2019-06-07T07:54:10.743Z,17.12
2019-06-07T07:56:32.783Z,15.55
2019-06-07T07:59:03.015Z,15.32
2019-06-07T08:01:32.689Z,14.63
2019-06-07T08:04:02.329Z,15.40
2019-06-07T08:06:31.906Z,16.10
2019-06-07T08:09:01.530Z,17.10
2019-06-07T08:11:32.909Z,17.15
2019-06-07T08:14:02.621Z,17.92
2019-06-07T08:16:32.289Z,16.37
2019-06-07T08:19:04.099Z,17.52
2019-06-07T08:21:33.293Z,18.00
2019-06-07T08:24:05.105Z,18.82
2019-06-07T08:26:34.174Z,20.23
2019-06-07T08:29:03.780Z,20.40
2019-06-07T08:31:34.485Z,20.45
2019-06-07T08:34:04.281Z,20.08
2019-06-07T08:36:41.924Z,19.85
2019-06-07T08:39:07.888Z,18.67
2019-06-07T08:41:37.725Z,17.27
2019-06-07T08:44:22.779Z,19.20
2019-06-07T08:46:38.562Z,20.52
2019-06-07T08:49:08.213Z,20.20
2019-06-07T08:51:37.883Z,19.65
2019-06-07T08:54:21.765Z,20.15
2019-06-07T08:56:38.732Z,21.05
2019-06-07T08:59:11.545Z,21.12
2019-06-07T09:01:39.674Z,19.95
2019-06-07T09:04:11.113Z,19.17
2019-06-07T09:07:02.702Z,19.77
2019-06-07T09:09:11.789Z,20.43
2019-06-07T09:11:41.356Z,20.37
2019-06-07T09:14:10.983Z,18.75
2019-06-07T09:16:40.613Z,19.82
2019-06-07T09:19:11.143Z,19.48
2019-06-07T09:21:40.905Z,19.32
2019-06-07T09:24:11.974Z,19.52
2019-06-07T09:26:41.961Z,18.25
2019-06-07T09:29:12.966Z,18.90
2019-06-07T09:31:52.590Z,17.25
2019-06-07T09:34:15.594Z,16.32
2019-06-07T09:36:45.490Z,16.57
2019-06-07T09:39:15.149Z,17.02
2019-06-07T09:41:50.277Z,17.92
2019-06-07T09:44:24.669Z,16.00
2019-06-07T09:46:47.367Z,15.60
2019-06-07T09:49:30.582Z,14.43
2019-06-07T09:51:48.197Z,15.53
2019-06-07T09:56:48.997Z,15.63
2019-06-07T09:59:18.621Z,16.20
2019-06-07T10:01:49.591Z,16.35
2019-06-07T10:04:30.737Z,15.00
2019-06-07T10:06:50.584Z,15.25
2019-06-07T10:10:08.657Z,14.68
2019-06-07T10:11:51.516Z,14.98
2019-06-07T10:14:21.221Z,15.43
2019-06-07T10:16:50.819Z,16.02
2019-06-07T10:19:20.530Z,14.70
2019-06-07T10:21:50.153Z,14.80
2019-06-07T10:24:19.875Z,14.53
2019-06-07T10:26:49.466Z,13.93
2019-06-07T10:29:19.098Z,14.30
2019-06-07T10:31:48.807Z,14.07
2019-06-07T10:34:19.477Z,13.93
2019-06-07T10:36:49.533Z,14.75
2019-06-07T10:39:19.124Z,13.95
2019-06-07T10:41:48.758Z,13.38
2019-06-07T10:44:18.353Z,11.68
2019-06-07T10:46:47.984Z,13.98
2019-06-07T10:49:17.687Z,13.70
2019-06-07T10:51:47.273Z,13.40
2019-06-07T10:54:26.973Z,13.58
2019-06-07T10:56:48.226Z,13.62
2019-06-07T10:59:17.858Z,12.85
2019-06-07T11:01:47.470Z,12.58
2019-06-07T11:04:17.186Z,11.95
2019-06-07T11:06:46.783Z,11.90
2019-06-07T11:09:16.409Z,12.20
2019-06-07T11:11:46.039Z,11.97
2019-06-07T11:14:15.645Z,12.03
2019-06-07T11:16:45.334Z,11.48
2019-06-07T11:19:17.723Z,10.70
2019-06-07T11:21:46.251Z,11.33
2019-06-07T11:24:19.365Z,10.00
2019-06-07T11:26:47.210Z,10.35
2019-06-07T11:29:16.893Z,10.95
2019-06-07T11:31:47.534Z,9.80
2019-06-07T11:34:17.282Z,10.35
2019-06-07T11:36:46.890Z,10.20
2019-06-07T11:39:16.581Z,9.25
2019-06-07T11:41:46.177Z,8.98
2019-06-07T11:44:17.409Z,10.23
2019-06-07T11:46:47.007Z,9.98
2019-06-07T11:49:20.352Z,10.48
2019-06-07T11:51:47.893Z,10.25
2019-06-07T11:54:20.404Z,10.32
2019-06-07T11:56:48.813Z,10.15
2019-06-07T11:59:18.438Z,9.75
2019-06-07T12:01:48.030Z,10.93
2019-06-07T12:04:32.454Z,11.48
2019-06-07T12:06:48.914Z,11.70
2019-06-07T12:09:18.831Z,12.03
2019-06-07T12:11:48.601Z,11.95
2019-06-07T12:14:19.342Z,11.40
2019-06-07T12:16:50.158Z,12.82
2019-06-07T12:19:19.900Z,11.95
2019-06-07T12:21:50.147Z,11.85
2019-06-07T12:24:21.141Z,12.50
2019-06-07T12:26:50.865Z,11.90
2019-06-07T12:29:21.108Z,11.38
2019-06-07T12:31:50.724Z,10.65
2019-06-07T12:34:21.552Z,10.65
2019-06-07T12:36:51.322Z,9.78
2019-06-07T12:39:22.159Z,9.93
2019-06-07T12:41:51.916Z,10.15
2019-06-07T12:44:22.727Z,10.05
2019-06-07T12:46:52.446Z,9.20
2019-06-07T12:49:23.491Z,9.18
2019-06-07T12:51:53.319Z,8.60
2019-06-07T12:54:23.858Z,8.98
2019-06-07T12:56:53.596Z,10.18
2019-06-07T12:59:24.294Z,9.95
2019-06-07T13:01:54.034Z,10.45
2019-06-07T13:04:24.971Z,10.08
2019-06-07T13:06:54.693Z,9.85
2019-06-07T13:09:24.409Z,10.08
2019-06-07T13:11:54.061Z,9.15
2019-06-07T13:14:24.025Z,8.40
2019-06-07T13:16:53.665Z,8.18
2019-06-07T13:19:24.326Z,7.62
2019-06-07T13:21:54.993Z,8.00
2019-06-07T13:24:25.163Z,7.85
2019-06-07T13:26:55.983Z,8.40
2019-06-07T13:29:29.427Z,8.18
2019-06-07T13:31:56.829Z,8.15
2019-06-07T13:34:26.426Z,8.50
2019-06-07T13:36:55.973Z,8.20
2019-06-07T13:39:27.800Z,8.28
2019-06-07T13:41:56.873Z,8.35
2019-06-07T13:44:26.526Z,7.65
2019-06-07T13:46:56.224Z,8.35
2019-06-07T13:49:25.859Z,9.28
2019-06-07T13:51:55.541Z,8.53
2019-06-07T13:54:25.257Z,9.10
2019-06-07T13:57:02.245Z,7.15
2019-06-07T13:59:26.446Z,6.95
2019-06-07T14:01:56.213Z,7.25
2019-06-07T14:04:27.100Z,7.62
2019-06-07T14:06:56.817Z,8.48
2019-06-07T14:09:27.598Z,8.70
2019-06-07T14:11:57.273Z,8.80
2019-06-07T14:14:27.523Z,8.33
2019-06-07T14:16:58.043Z,7.92
2019-06-07T14:19:28.728Z,8.00
2019-06-07T14:21:58.364Z,7.90
2019-06-07T14:24:29.097Z,7.50
2019-06-07T14:27:07.603Z,8.40
2019-06-07T14:29:37.776Z,8.45
2019-06-07T14:32:09.990Z,8.08
2019-06-07T14:34:39.606Z,7.90
2019-06-07T14:37:09.225Z,8.55
2019-06-07T14:39:38.851Z,8.15
2019-06-07T14:42:10.345Z,8.15
2019-06-07T14:44:39.685Z,8.25
2019-06-07T14:47:09.325Z,8.23
2019-06-07T14:49:39.202Z,7.97
2019-06-07T14:52:09.639Z,8.13
2019-06-07T14:54:39.578Z,8.28
2019-06-07T14:57:10.125Z,7.25
2019-06-07T14:59:39.678Z,6.97
2019-06-07T15:02:09.330Z,7.10
2019-06-07T15:04:41.873Z,7.05
2019-06-07T15:07:13.022Z,6.97
2019-06-07T15:09:43.756Z,7.70
2019-06-07T15:12:24.760Z,7.25
2019-06-07T15:14:44.457Z,7.42
2019-06-07T15:17:14.050Z,7.62
2019-06-07T15:19:43.744Z,6.80
2019-06-07T15:22:15.832Z,7.00
2019-06-07T15:24:45.473Z,6.42
2019-06-07T15:27:15.114Z,6.75
2019-06-07T15:29:44.707Z,6.70
2019-06-07T15:32:14.333Z,6.53
2019-06-07T15:34:43.949Z,7.10
2019-06-07T15:37:15.602Z,6.47
2019-06-07T15:39:46.905Z,6.35
2019-06-07T15:42:16.485Z,7.20
2019-06-07T15:44:46.173Z,6.67
2019-06-07T15:47:15.771Z,6.65
2019-06-07T15:49:45.393Z,7.30
2019-06-07T15:52:15.756Z,7.83
2019-06-07T15:54:45.457Z,7.00
2019-06-07T15:57:14.977Z,6.20
2019-06-07T15:59:44.598Z,6.62
2019-06-07T16:02:14.226Z,7.58
2019-06-07T16:04:43.838Z,6.83
2019-06-07T16:07:13.468Z,7.20
2019-06-07T16:09:43.085Z,7.28
2019-06-07T16:12:12.677Z,6.90
2019-06-07T16:14:43.477Z,6.62
2019-06-07T16:17:13.319Z,7.35
2019-06-07T16:22:30.329Z,7.70
2019-06-07T16:24:59.957Z,8.45
2019-06-07T16:27:29.646Z,9.30
2019-06-07T16:29:59.287Z,8.90
2019-06-07T16:32:28.973Z,8.63
2019-06-07T16:34:58.581Z,9.33
2019-06-07T16:37:28.202Z,9.78
2019-06-07T16:39:57.792Z,9.68
2019-06-07T16:42:27.405Z,9.23
2019-06-07T16:44:56.997Z,9.20
2019-06-07T16:47:26.619Z,9.05
2019-06-07T16:49:56.213Z,9.30
2019-06-07T16:52:25.829Z,9.18
2019-06-07T16:54:55.349Z,9.58
2019-06-07T16:57:24.976Z,10.40
2019-06-07T16:59:54.600Z,10.20
2019-06-07T17:02:24.241Z,10.53
2019-06-07T17:04:53.817Z,10.25
2019-06-07T17:07:23.441Z,10.45
2019-06-07T17:09:53.070Z,10.53
2019-06-07T17:12:22.704Z,10.80
2019-06-07T17:14:53.393Z,10.20
2019-06-07T17:17:24.001Z,10.30
2019-06-07T17:19:53.661Z,10.65
2019-06-07T17:22:23.280Z,9.68
2019-06-07T17:24:52.912Z,10.18
2019-06-07T17:27:22.501Z,10.63
2019-06-07T17:29:52.530Z,9.98
2019-06-07T17:32:22.117Z,8.68
2019-06-07T17:34:51.757Z,7.40
2019-06-07T17:37:21.455Z,7.92
2019-06-07T17:39:51.149Z,6.75
2019-06-07T17:42:20.733Z,6.62
2019-06-07T17:44:51.566Z,6.12
2019-06-07T17:47:21.297Z,5.97
2019-06-07T17:49:52.022Z,6.28
2019-06-07T17:52:21.757Z,6.58
2019-06-07T17:54:52.350Z,6.45
2019-06-07T17:57:22.150Z,6.15
2019-06-07T17:59:52.699Z,6.65
2019-06-07T18:02:22.340Z,6.78
2019-06-07T18:04:53.385Z,6.83
2019-06-07T18:07:26.529Z,6.33
2019-06-07T18:09:56.813Z,6.22
2019-06-07T18:12:26.352Z,6.92
2019-06-07T18:14:55.972Z,6.85
2019-06-07T18:17:34.159Z,7.40
2019-06-07T18:20:16.754Z,6.95
2019-06-07T18:22:47.050Z,7.12
2019-06-07T18:25:16.740Z,6.95
2019-06-07T18:27:46.579Z,7.08
2019-06-07T18:30:16.281Z,6.97
2019-06-07T18:32:46.841Z,7.20
2019-06-07T18:35:16.576Z,7.55
2019-06-07T18:37:46.947Z,7.35
2019-06-07T18:40:16.828Z,10.00
2019-06-07T18:42:47.138Z,7.85
2019-06-07T18:45:17.693Z,8.93
2019-06-07T18:47:47.855Z,11.78
2019-06-07T18:50:17.657Z,9.48
2019-06-07T18:52:48.556Z,9.35
2019-06-07T18:55:18.617Z,8.43
2019-06-07T18:57:48.303Z,8.98
2019-06-07T19:00:20.784Z,12.00
2019-06-07T19:02:51.745Z,9.48
2019-06-07T19:05:21.596Z,9.25
2019-06-07T19:07:52.441Z,9.73
2019-06-07T19:10:23.716Z,9.60
2019-06-07T19:12:53.409Z,9.68
2019-06-07T19:15:24.228Z,9.58
2019-06-07T19:17:54.113Z,10.03
2019-06-07T19:20:24.069Z,9.95
2019-06-07T19:22:54.178Z,10.10
2019-06-07T19:25:23.776Z,10.65
2019-06-07T19:27:54.760Z,10.08
2019-06-07T19:30:24.672Z,9.30
2019-06-07T19:32:55.101Z,10.03
2019-06-07T19:35:24.728Z,9.35
2019-06-07T19:37:55.746Z,10.30
2019-06-07T19:40:25.472Z,9.65
2019-06-07T19:42:56.275Z,9.93
2019-06-07T19:45:30.876Z,9.95
2019-06-07T19:47:58.618Z,10.03
2019-06-07T19:50:28.407Z,10.03
2019-06-07T19:52:59.131Z,11.15
2019-06-07T19:55:28.776Z,10.53
2019-06-07T19:57:59.585Z,10.03
2019-06-07T20:00:29.208Z,10.30
2019-06-07T20:02:59.941Z,11.18
2019-06-07T20:05:29.548Z,10.72
2019-06-07T20:08:00.510Z,10.43
2019-06-07T20:10:30.220Z,10.05
2019-06-07T20:13:00.792Z,11.03
2019-06-07T20:15:31.097Z,10.20
2019-06-07T20:18:01.329Z,10.32
2019-06-07T20:20:30.966Z,11.33
2019-06-07T20:23:00.924Z,10.53
2019-06-07T20:25:30.692Z,10.28
2019-06-07T20:28:01.406Z,10.82
2019-06-07T20:30:32.190Z,10.90
2019-06-07T20:33:01.940Z,10.58
2019-06-07T20:35:31.521Z,10.68
2019-06-07T20:38:01.150Z,10.93
2019-06-07T20:40:30.872Z,11.18
2019-06-07T20:43:01.501Z,10.63
2019-06-07T20:45:34.291Z,11.68
2019-06-07T20:48:04.280Z,11.73
2019-06-07T20:50:33.937Z,11.15
2019-06-07T20:53:05.053Z,11.10
2019-06-07T20:55:34.808Z,11.33
2019-06-07T20:58:05.553Z,11.33
2019-06-07T21:00:35.255Z,11.65
2019-06-07T21:03:05.325Z,11.25
2019-06-07T21:05:34.992Z,11.45
2019-06-07T21:08:08.097Z,10.90
2019-06-07T21:10:35.887Z,11.78
2019-06-07T21:13:05.897Z,11.30
2019-06-07T21:15:48.511Z,11.93
2019-06-07T21:18:16.930Z,11.75
2019-06-07T21:20:40.027Z,12.10
2019-06-07T21:23:09.542Z,11.50
2019-06-07T21:25:39.156Z,12.03
2019-06-07T21:28:09.344Z,11.88
2019-06-07T21:30:38.988Z,12.10
2019-06-07T21:33:09.718Z,11.33
2019-06-07T21:35:39.372Z,12.30
2019-06-07T21:38:09.942Z,12.65
2019-06-07T21:40:39.587Z,13.20
2019-06-07T21:43:10.459Z,12.35
2019-06-07T21:45:40.191Z,12.13
2019-06-07T21:48:11.404Z,12.90
2019-06-07T21:50:41.076Z,13.70
2019-06-07T21:53:10.774Z,13.35
2019-06-07T21:55:41.315Z,13.55
2019-06-07T21:58:11.244Z,14.38
2019-06-07T22:00:55.796Z,14.53
2019-06-07T22:03:25.583Z,15.00
2019-06-07T22:05:55.238Z,14.47
2019-06-07T22:08:25.681Z,14.93
2019-06-07T22:10:56.276Z,15.25
2019-06-07T22:13:25.897Z,14.73
2019-06-07T22:15:55.439Z,15.03
2019-06-07T22:18:24.960Z,15.50
2019-06-07T22:20:55.592Z,16.30
2019-06-07T22:23:25.147Z,16.62
2019-06-07T22:25:54.768Z,16.10
2019-06-07T22:28:24.291Z,16.35
2019-06-07T22:30:53.876Z,15.70
2019-06-07T22:33:25.135Z,15.90
2019-06-07T22:35:54.680Z,16.57
2019-06-07T22:38:24.337Z,16.87
2019-06-07T22:40:53.808Z,16.85
2019-06-07T22:43:23.324Z,16.90
2019-06-07T22:45:52.943Z,17.55
2019-06-07T22:48:22.457Z,16.77
2019-06-07T22:50:52.089Z,18.02
2019-06-07T22:53:21.599Z,18.15
2019-06-07T22:55:52.795Z,18.42
2019-06-07T22:58:22.312Z,19.12
2019-06-07T23:00:51.864Z,18.77
2019-06-07T23:03:21.429Z,19.27
2019-06-07T23:05:51.005Z,18.35
2019-06-07T23:08:20.589Z,18.40
2019-06-07T23:10:50.137Z,16.97
2019-06-07T23:13:19.689Z,17.27
2019-06-07T23:15:50.148Z,17.80
2019-06-07T23:18:19.816Z,17.85
2019-06-07T23:20:51.891Z,17.60
2019-06-07T23:23:24.522Z,18.05
2019-06-07T23:25:56.716Z,17.65
2019-06-07T23:28:28.548Z,18.30
2019-06-07T23:31:01.028Z,17.48
2019-06-07T23:33:34.318Z,17.57
2019-06-07T23:36:07.305Z,17.12
2019-06-07T23:38:40.907Z,17.57
2019-06-07T23:41:13.412Z,18.27
2019-06-07T23:43:46.571Z,17.50
2019-06-07T23:46:19.457Z,17.48
2019-06-07T23:48:52.544Z,18.30
2019-06-07T23:51:22.808Z,17.73
2019-06-07T23:53:52.339Z,17.50
2019-06-07T23:56:22.262Z,18.30
2019-06-07T23:58:53.066Z,18.80
